• Join FlightAware (Why Join?)
  • Login
  • US Flag 
06:19PM EST


 

Airport Tracker/Info


-or-


 

Live Flight TrackerFlight Track Log ✈ AWE1940 ✈ 01-Jun-2013 ✈ KIAH - KCLT

Flight Track Log - Related Links

Times and Time Zones

All times are in EDT time to prevent confusion due to time zone crossing. See the AWE1940 flight status page for this flight to view local times or setup timezone preferences in your user account.

Time Position Orientation Groundspeed Altitude Reporting Facility
EDT Latitude Longitude Course Direction KTS MPH feet Rate Location/Type
06:37PM 29.9639 -95.3433 95° East 166 191 700  Level Houston Center
06:37PM 29.9550 -95.3156 110° East 184 212 1,800 2,308 Climbing Houston Center
06:38PM 29.9503 -95.2414 94° East 247 284 4,200 2,080 Climbing Houston Center
06:39PM 29.9511 -95.2372 77° East 227 261 4,400 2,727 Climbing Houston Center
06:40PM 29.9290 -94.9405 101° East  Level FlightAware Approximate
06:40PM 29.9400 -95.1269 97° East 284 327 7,700  Level Houston Center
06:41PM 29.9119 -94.8091 95° East  Level FlightAware Approximate
06:41PM 29.9322 -95.0294 95° East 301 346 10,700  Level Houston Center
06:42PM 29.9008 -94.6766 95° East  Level FlightAware Approximate
06:42PM 29.9217 -94.9194 96° East 343 395 12,800  Level Houston Center
06:43PM 29.9181 -94.8000 92° East 373 429 15,100 2,341 Climbing Houston Center
06:44PM 29.9361 -94.6767 80° East 389 448 17,600 2,274 Climbing Houston Center
06:45PM 29.9533 -94.5497 81° East 395 455 19,800 2,000 Climbing Houston Center
06:46PM 29.9706 -94.4192 81° East 408 470 21,700 1,756 Climbing Houston Center
06:47PM 29.9892 -94.2831 81° East 423 487 23,400 1,790 Climbing Houston Center
06:48PM 30.0125 -94.1144 81° East 443 510 25,400 1,694 Climbing Houston Center
06:49PM 30.0306 -93.9686 82° East 458 527 26,900 1,366 Climbing Houston Center
06:50PM 30.0503 -93.8203 81° East 468 539 28,200 1,415 Climbing Houston Center
06:51PM 30.0689 -93.6703 82° East 476 548 29,800 1,500 Climbing Houston Center
06:52PM 30.0878 -93.5228 82° East 473 544 31,300 1,355 Climbing Houston Center
06:53PM 30.1089 -93.3431 82° East 478 550 32,600 976 Climbing Houston Center
06:54PM 30.1292 -93.1931 81° East 479 551 33,300 829 Climbing Houston Center
06:55PM 30.1475 -93.0433 82° East 476 548 34,300 823 Climbing Houston Center
06:56PM 30.1703 -92.8958 80° East 468 539 35,000 341 Climbing Houston Center
06:57PM 30.1906 -92.7464 81° East 471 542 35,000  Level Houston Center
06:58PM 30.2108 -92.5947 81° East 477 549 35,000  Level Houston Center
06:59PM 30.2375 -92.4156 80° East 474 545 35,000  Level Houston Center
07:00PM 30.2556 -92.2703 82° East 476 548 35,000  Level Houston Center
07:01PM 30.2756 -92.1200 81° East 476 548 35,000  Level Houston Center
07:02PM 30.2961 -91.9708 81° East 474 545 35,000  Level Houston Center
07:03PM 30.3206 -91.7914 81° East 473 544 35,000  Level Houston Center
07:04PM 30.3397 -91.6478 81° East 473 544 35,000  Level Houston Center
07:05PM 30.3600 -91.4981 81° East 470 541 35,000  Level Houston Center
07:07PM 30.3792 -91.3481 82° East 472 543 35,000  Level Houston Center
07:08PM 30.3989 -91.1986 81° East 471 542 35,000  Level Houston Center
07:09PM 30.4172 -91.0483 82° East 471 542 35,000  Level Houston Center
07:10PM 30.4403 -90.8683 82° East 472 543 35,000  Level Houston Center
07:11PM 30.4586 -90.7172 82° East 474 545 35,000  Level Houston Center
07:12PM 30.4772 -90.5672 82° East 471 542 35,000  Level Houston Center
07:13PM 30.4958 -90.4153 82° East 474 545 35,000  Level Houston Center
07:14PM 30.5133 -90.2642 82° East 473 544 35,000  Level Houston Center
07:15PM 30.5314 -90.1125 82° East 472 543 35,000  Level Houston Center
07:16PM 30.5503 -89.9589 82° East 476 548 35,000  Level Houston Center
07:17PM 30.5686 -89.8050 82° East 475 547 35,000  Level Houston Center
07:18PM 30.5889 -89.6203 83° East 474 545 35,000  Level Houston Center
07:19PM 30.6061 -89.4664 83° East 477 549 35,000  Level Houston Center
07:20PM 30.6228 -89.3144 83° East 475 547 35,000  Level Houston Center
07:21PM 30.6383 -89.1608 83° East 479 551 35,000  Level Houston Center
07:22PM 30.6553 -89.0097 83° East 475 547 35,000  Level Houston Center
07:23PM 30.6692 -88.8625 84° East 468 539 35,000  Level Houston Center
07:24PM 30.6872 -88.7122 82° East 470 541 35,000  Level Houston Center
07:25PM 30.7056 -88.5336 83° East 468 539 35,000  Level Houston Center
07:26PM 30.7211 -88.3797 83° East 469 540 35,000 -48 Level Houston Center
07:27PM 30.7392 -88.2300 82° East 469 540 34,900  Descending Houston Center
07:28PM 30.7589 -88.0817 81° East 467 537 35,000 49 Climbing Houston Center
07:29PM 30.7775 -87.9325 82° East 467 537 35,000  Level Houston Center
07:30PM 30.7953 -87.7844 82° East 466 536 35,000  Level Houston Center
07:31PM 30.8164 -87.6200 81° East 463 533 35,000  Level Houston Center
07:32PM 30.8344 -87.4733 82° East 463 533 35,000  Level Houston Center
07:33PM 30.8483 -87.3494 83° East 465 535 35,000  Level Jacksonville Center
07:34PM 30.8906 -87.2086 71° East 452 520 35,000  Level Jacksonville Center
07:35PM 30.9533 -87.0783 61° Northeast 452 520 35,000  Level Jacksonville Center
07:36PM 31.0119 -86.9453 63° Northeast 457 526 35,000  Level Jacksonville Center
07:37PM 31.0594 -86.8283 65° Northeast 449 517 35,000  Level Jacksonville Center
07:38PM 31.1181 -86.6925 63° Northeast 449 517 35,000  Level Jacksonville Center
07:39PM 31.1786 -86.5419 65° Northeast 459 528 35,000  Level Jacksonville Center
07:40PM 31.2367 -86.4083 63° Northeast 459 528 35,000  Level Jacksonville Center
07:41PM 31.2967 -86.2744 62° Northeast 459 528 35,000  Level Jacksonville Center
07:43PM 31.4008 -86.0289 64° Northeast 468 539 35,000  Level Atlanta Center
07:44PM 31.4592 -85.8964 63° Northeast 462 532 35,000  Level Atlanta Center
07:45PM 31.5342 -85.7736 54° Northeast 455 524 35,000  Level Atlanta Center
07:46PM 31.6089 -85.6556 53° Northeast 455 524 35,000  Level Atlanta Center
07:47PM 31.6875 -85.5300 54° Northeast 460 529 35,000  Level Atlanta Center
07:48PM 31.7619 -85.4067 55° Northeast 460 529 35,000  Level Atlanta Center
07:49PM 31.8383 -85.2856 53° Northeast 465 535 35,000  Level Atlanta Center
07:50PM 31.9147 -85.1619 54° Northeast 470 541 35,000  Level Atlanta Center
07:51PM 31.9844 -85.0550 52° Northeast 465 535 35,000  Level Atlanta Center
07:52PM 32.0586 -84.9333 54° Northeast 465 535 35,000  Level Atlanta Center
07:53PM 32.1367 -84.8067 54° Northeast 465 535 35,000  Level Atlanta Center
07:54PM 32.2144 -84.6844 53° Northeast 465 535 35,000  Level Atlanta Center
07:55PM 32.2881 -84.5622 55° Northeast 465 535 35,000  Level Atlanta Center
07:56PM 32.3639 -84.4372 54° Northeast 460 529 35,000  Level Atlanta Center
07:57PM 32.4392 -84.3119 55° Northeast 460 529 35,000  Level Atlanta Center
07:58PM 32.5231 -84.1767 54° Northeast 468 539 35,000  Level Atlanta Center
07:59PM 32.5983 -84.0486 55° Northeast 468 539 35,000  Level Atlanta Center
08:00PM 32.6733 -83.9253 54° Northeast 468 539 35,000  Level Atlanta Center
08:01PM 32.7483 -83.8042 54° Northeast 468 539 35,000  Level Atlanta Center
08:02PM 32.8231 -83.6756 55° Northeast 468 539 35,000 -150 Level Atlanta Center
08:03PM 32.8978 -83.5539 54° Northeast 468 539 34,700 -650 Descending Atlanta Center
08:04PM 32.9725 -83.4247 55° Northeast 468 539 33,700 -950 Descending Atlanta Center
08:05PM 33.0447 -83.3028 55° Northeast 468 539 32,800 -950 Descending Atlanta Center
08:06PM 33.1192 -83.1733 55° Northeast 468 539 31,800 -900 Descending Atlanta Center
08:07PM 33.1850 -83.0608 55° Northeast 468 539 31,000 -900 Descending Atlanta Center
08:08PM 33.2592 -82.9358 55° Northeast 468 539 30,000 -1,000 Descending Atlanta Center
08:09PM 33.3350 -82.8081 55° Northeast 462 532 29,000 -950 Descending Atlanta Center
08:10PM 33.4069 -82.6825 56° Northeast 469 540 28,100 -500 Descending Atlanta Center
08:11PM 33.4828 -82.5569 54° Northeast 463 533 28,000 -50 Descending Atlanta Center
08:12PM 33.5519 -82.4311 57° Northeast 464 534 28,000 -300 Level Atlanta Center
08:13PM 33.6275 -82.3050 54° Northeast 458 527 27,400 -850 Descending Atlanta Center
08:14PM 33.7133 -82.1783 51° Northeast 458 527 26,300 -1,250 Descending Atlanta Center
08:15PM 33.8278 -82.1583 North 392 451 24,900 -1,150 Descending Atlanta Center
08:16PM 33.9425 -82.1558 North 392 451 24,000 -450 Descending Atlanta Center
08:17PM 34.0553 -82.1558 360° North 392 451 24,000  Level Atlanta Center
08:18PM 34.1700 -82.1558 360° North 392 451 24,000  Level Atlanta Center
08:19PM 34.2761 -82.1308 11° North 397 457 24,000 -650 Level Atlanta Center
08:20PM 34.3539 -82.0283 47° Northeast 377 434 22,700 -1,800 Descending Atlanta Center
08:21PM 34.4314 -81.9283 47° Northeast 382 440 20,400 -2,250 Descending Atlanta Center
08:22PM 34.5050 -81.8333 47° Northeast 387 445 18,200 -2,150 Descending Atlanta Center
08:23PM 34.5783 -81.7431 45° Northeast 381 438 16,100 -2,318 Descending Atlanta Center
08:23PM 34.6108 -81.6992 48° Northeast 370 426 14,800 -2,200 Descending Atlanta Center
08:24PM 34.6417 -81.6631 44° Northeast 370 426 13,900 -1,826 Descending Atlanta Center
08:25PM 34.7108 -81.5750 46° Northeast 363 418 12,000 -1,000 Descending Atlanta Center
08:26PM 34.7778 -81.4897 46° Northeast 351 404 11,900 -550 Descending Atlanta Center
08:27PM 34.8450 -81.4017 47° Northeast 351 404 10,900 -1,000 Descending Atlanta Center
08:28PM 34.9158 -81.3081 47° Northeast 346 398 9,900 -450 Descending Atlanta Center
08:29PM 34.9808 -81.2250 46° Northeast 341 392 10,000 80 Climbing Atlanta Center
08:29PM 34.9992 -81.2014 47° Northeast 338 389 10,000  Level Atlanta Center
08:30PM 35.0456 -81.1414 47° Northeast 335 386 10,000 -457 Level Atlanta Center
08:31PM 35.1086 -81.0658 44° Northeast 323 372 9,200 -779 Descending Atlanta Center
08:31PM 35.1314 -81.0622 North 303 349 9,000 -1,400 Descending Atlanta Center
08:32PM 35.1919 -81.0678 356° North 277 319 7,800 -1,922 Descending Atlanta Center
08:33PM 35.2736 -81.0750 356° North 283 326 5,700 -1,850 Descending Atlanta Center
08:34PM 35.3650 -81.0564 North 294 338 3,700 -1,644 Descending Atlanta Center